Time;durP1;ratioP1;P1;durP2;ratioP2;P2;SDS_P1;SDS_P2;PMS_P1;PMS_P2;Temp;Humidity;BMP_temperature;BMP_pressure;BME280_temperature;BME280_humidity;BME280_pressure;Samples;Min_cycle;Max_cycle;Signal;HPM_P1;HPM_P2
2023/06/29 03:18:42;;;;;;;3.63;1.10;;;16.30;78.90;;;;;;6102117;23;80925;-70
2023/06/29 03:21:08;;;;;;;4.78;1.50;;;16.30;79.00;;;;;;6102826;23;81624;-69
2023/06/29 03:23:34;;;;;;;5.10;1.40;;;16.20;79.20;;;;;;6102283;23;80470;-71
2023/06/29 03:25:59;;;;;;;4.13;1.60;;;16.20;79.30;;;;;;6101616;23;81028;-72
2023/06/29 03:28:25;;;;;;;5.47;1.38;;;16.20;79.90;;;;;;6102363;23;80792;-71
2023/06/29 03:30:50;;;;;;;5.25;1.48;;;16.20;80.40;;;;;;6102423;23;81037;-71
2023/06/29 03:33:16;;;;;;;5.88;1.52;;;16.20;79.80;;;;;;6102853;23;81624;-72
2023/06/29 03:35:42;;;;;;;7.28;1.63;;;16.10;80.10;;;;;;6101151;23;81815;-71
2023/06/29 03:38:09;;;;;;;4.80;1.58;;;16.20;80.20;;;;;;6102197;23;80585;-73
2023/06/29 03:40:35;;;;;;;6.68;1.70;;;16.10;80.20;;;;;;6102315;23;81673;-71
2023/06/29 03:43:01;;;;;;;5.20;1.52;;;16.10;80.40;;;;;;6102718;23;81587;-71
2023/06/29 03:45:27;;;;;;;5.28;1.40;;;16.10;80.40;;;;;;6102086;23;81869;-71
2023/06/29 03:47:53;;;;;;;4.75;1.60;;;16.20;80.40;;;;;;6103207;23;80827;-71
2023/06/29 03:50:18;;;;;;;6.13;1.30;;;16.20;80.40;;;;;;6102707;23;82345;-72
2023/06/29 03:52:44;;;;;;;8.05;1.70;;;16.30;80.10;;;;;;6102385;23;81090;-72
2023/06/29 03:55:10;;;;;;;8.43;1.63;;;16.50;79.80;;;;;;6102431;23;82900;-70
2023/06/29 03:57:35;;;;;;;5.55;1.63;;;16.90;78.60;;;;;;6102657;23;80319;-73
2023/06/29 04:00:02;;;;;;;4.38;1.40;;;17.40;76.80;;;;;;6102345;23;81472;-73
2023/06/29 04:02:28;;;;;;;4.35;1.40;;;17.80;74.80;;;;;;6103088;23;80515;-72
2023/06/29 04:04:54;;;;;;;8.10;1.65;;;18.20;73.50;;;;;;6102108;23;80647;-72
2023/06/29 04:07:20;;;;;;;5.57;1.77;;;18.50;71.90;;;;;;6102621;23;80508;-71
2023/06/29 04:09:46;;;;;;;2.88;1.23;;;18.90;70.60;;;;;;6102736;23;81973;-71
2023/06/29 04:12:12;;;;;;;5.28;1.58;;;19.20;69.70;;;;;;6101488;23;80781;-71
2023/06/29 04:14:37;;;;;;;7.30;1.67;;;19.40;69.10;;;;;;6102569;23;80683;-73
2023/06/29 04:17:03;;;;;;;5.90;2.03;;;19.80;67.50;;;;;;6102462;23;80634;-71
2023/06/29 04:19:29;;;;;;;3.85;1.40;;;20.20;66.60;;;;;;6102322;23;83297;-71
2023/06/29 04:21:55;;;;;;;5.55;1.85;;;20.50;65.60;;;;;;6102668;23;81360;-72
2023/06/29 04:24:20;;;;;;;9.95;1.58;;;20.70;64.80;;;;;;6102323;23;81219;-73
2023/06/29 04:26:46;;;;;;;6.82;1.73;;;20.90;64.00;;;;;;6102659;23;80551;-71
2023/06/29 04:29:12;;;;;;;7.32;1.75;;;21.20;63.30;;;;;;6102358;23;81486;-73
2023/06/29 04:31:37;;;;;;;5.15;2.00;;;21.40;62.40;;;;;;6102346;23;81300;-73
2023/06/29 04:34:03;;;;;;;4.18;1.88;;;21.60;62.00;;;;;;6102476;23;80336;-72
2023/06/29 04:36:29;;;;;;;8.60;2.00;;;22.20;60.80;;;;;;6102635;23;80676;-71
2023/06/29 04:38:55;;;;;;;11.73;1.90;;;22.60;59.70;;;;;;6102460;23;80813;-72
2023/06/29 04:41:30;;;;;;;8.13;1.80;;;23.10;58.70;;;;;;6101263;23;80765;-72
2023/06/29 04:43:57;;;;;;;10.38;2.10;;;23.10;57.70;;;;;;6101929;23;80640;-71
2023/06/29 04:46:24;;;;;;;6.53;2.10;;;23.70;57.50;;;;;;6100639;23;80142;-72
2023/06/29 04:48:50;;;;;;;6.60;2.20;;;24.10;55.80;;;;;;6102234;23;80631;-71
2023/06/29 04:51:18;;;;;;;6.45;2.10;;;24.40;55.40;;;;;;6100997;23;81171;-73
2023/06/29 04:53:44;;;;;;;7.28;2.00;;;24.60;54.80;;;;;;6101036;23;80779;-74
2023/06/29 04:56:10;;;;;;;4.82;2.15;;;24.80;54.40;;;;;;6101774;23;80237;-73
2023/06/29 04:58:36;;;;;;;5.85;2.03;;;25.20;53.80;;;;;;6101232;23;80592;-74
2023/06/29 05:01:02;;;;;;;4.43;2.25;;;25.30;53.10;;;;;;6100112;23;80549;-73
2023/06/29 05:03:27;;;;;;;6.85;1.98;;;25.70;52.60;;;;;;6099394;23;80312;-74
2023/06/29 05:05:53;;;;;;;6.85;2.72;;;25.90;52.20;;;;;;6100466;23;80233;-73
2023/06/29 05:08:19;;;;;;;4.45;1.80;;;26.10;51.50;;;;;;6101213;23;81266;-74
2023/06/29 05:10:44;;;;;;;7.15;2.60;;;26.20;51.60;;;;;;6100714;23;80835;-74
2023/06/29 05:13:10;;;;;;;11.85;2.47;;;26.70;50.70;;;;;;6099803;23;80684;-73
2023/06/29 05:15:36;;;;;;;9.82;2.33;;;26.70;50.30;;;;;;6100312;23;80641;-71
2023/06/29 05:18:01;;;;;;;8.63;2.28;;;27.20;49.70;;;;;;6100498;23;81291;-74
2023/06/29 05:20:27;;;;;;;15.45;2.55;;;27.70;49.10;;;;;;6097054;23;80664;-75
2023/06/29 05:22:53;;;;;;;7.43;2.40;;;28.20;49.00;;;;;;6097375;23;80759;-74
2023/06/29 05:25:18;;;;;;;9.98;2.15;;;28.50;48.40;;;;;;6099601;23;80504;-74
2023/06/29 05:27:44;;;;;;;10.35;2.38;;;29.10;47.00;;;;;;6099860;23;81336;-74
2023/06/29 05:30:11;;;;;;;10.75;2.72;;;29.50;47.00;;;;;;6097673;23;80681;-74
2023/06/29 05:32:37;;;;;;;8.55;2.28;;;29.90;45.50;;;;;;6096221;23;80891;-73
2023/06/29 05:35:03;;;;;;;7.13;3.28;;;29.60;45.50;;;;;;6099602;23;80425;-74
2023/06/29 05:37:29;;;;;;;13.25;2.03;;;29.90;45.50;;;;;;6097218;23;83115;-74
2023/06/29 05:39:56;;;;;;;7.45;2.28;;;30.50;44.90;;;;;;6097477;23;81884;-74
2023/06/29 05:42:23;;;;;;;5.38;2.53;;;30.60;43.40;;;;;;6097597;23;82332;-74
2023/06/29 05:44:49;;;;;;;8.25;2.45;;;30.80;43.80;;;;;;6096599;23;82484;-74
2023/06/29 05:47:14;;;;;;;7.07;2.55;;;31.20;43.20;;;;;;6093444;23;83752;-74
2023/06/29 05:49:40;;;;;;;7.82;2.88;;;31.80;43.30;;;;;;6096957;23;83705;-73
2023/06/29 05:52:06;;;;;;;11.85;2.50;;;32.00;42.80;;;;;;6099520;23;82205;-74
2023/06/29 05:54:32;;;;;;;11.77;2.65;;;32.30;41.80;;;;;;6099953;23;81832;-74
2023/06/29 05:56:57;;;;;;;11.18;2.85;;;32.50;40.90;;;;;;6073955;23;83850;-75
2023/06/29 05:59:23;;;;;;;10.48;3.05;;;32.40;41.70;;;;;;6100442;23;82714;-74
2023/06/29 06:01:49;;;;;;;6.40;2.67;;;32.90;40.70;;;;;;6100376;23;82155;-73
2023/06/29 06:04:15;;;;;;;10.13;2.67;;;33.10;40.90;;;;;;6101974;23;81259;-74
2023/06/29 06:06:40;;;;;;;10.18;3.22;;;33.50;40.00;;;;;;6101310;23;82645;-72
2023/06/29 06:09:06;;;;;;;12.68;3.67;;;33.60;40.20;;;;;;6100202;23;83633;-73
2023/06/29 06:11:32;;;;;;;9.20;2.95;;;34.00;40.50;;;;;;6099503;23;83328;-73
2023/06/29 06:13:57;;;;;;;7.82;2.63;;;33.90;39.70;;;;;;6100983;23;82486;-73
2023/06/29 06:16:23;;;;;;;10.43;3.53;;;35.00;38.60;;;;;;6100368;23;83240;-74
2023/06/29 06:18:49;;;;;;;10.07;3.25;;;34.90;37.80;;;;;;6101076;23;82620;-73
2023/06/29 06:21:15;;;;;;;11.05;3.08;;;35.00;38.40;;;;;;6075020;23;82680;-73
2023/06/29 06:23:41;;;;;;;12.82;3.70;;;35.30;38.20;;;;;;6101669;23;82632;-74
2023/06/29 06:26:07;;;;;;;5.75;2.92;;;35.30;38.30;;;;;;6100467;23;82940;-74
2023/06/29 06:28:33;;;;;;;8.95;3.45;;;35.70;37.20;;;;;;6101011;23;83043;-73
2023/06/29 06:30:58;;;;;;;15.93;3.70;;;35.80;38.20;;;;;;6101177;23;82432;-72
2023/06/29 06:33:24;;;;;;;9.13;3.50;;;36.10;38.20;;;;;;6101771;23;82024;-73
2023/06/29 06:35:49;;;;;;;11.50;3.85;;;36.30;37.30;;;;;;6099840;23;83775;-73
2023/06/29 06:38:15;;;;;;;15.07;3.13;;;36.50;36.90;;;;;;6100410;23;83723;-74
2023/06/29 06:40:41;;;;;;;8.65;3.78;;;36.70;37.90;;;;;;6100834;23;82374;-75
2023/06/29 06:43:07;;;;;;;16.33;3.85;;;36.80;35.80;;;;;;6101144;23;82377;-73
2023/06/29 06:45:32;;;;;;;10.77;3.58;;;37.00;36.00;;;;;;6100470;23;82010;-74
2023/06/29 06:47:58;;;;;;;8.63;3.60;;;36.90;35.70;;;;;;6100481;23;82586;-74
2023/06/29 06:50:24;;;;;;;11.50;3.80;;;37.10;36.10;;;;;;6100919;23;82439;-74
2023/06/29 06:52:50;;;;;;;9.35;3.90;;;37.50;35.30;;;;;;6101509;23;81384;-74
2023/06/29 06:55:15;;;;;;;7.53;3.55;;;37.50;35.70;;;;;;6101283;23;83242;-73
2023/06/29 06:57:41;;;;;;;7.05;3.53;;;37.60;35.70;;;;;;6100129;23;82722;-74
2023/06/29 07:00:12;;;;;;;10.90;4.13;;;38.40;35.80;;;;;;6099088;23;83383;-74
2023/06/29 07:02:38;;;;;;;9.05;5.72;;;39.40;34.60;;;;;;6101497;23;81957;-74
2023/06/29 07:05:05;;;;;;;14.52;6.35;;;39.50;33.50;;;;;;6099657;23;83368;-74
2023/06/29 07:07:31;;;;;;;8.65;3.83;;;39.50;34.30;;;;;;6100143;23;82298;-73
2023/06/29 07:09:57;;;;;;;8.13;4.45;;;40.00;33.40;;;;;;6100541;23;82261;-73
2023/06/29 07:12:23;;;;;;;7.85;4.07;;;40.00;33.60;;;;;;6099398;23;82300;-73
2023/06/29 07:14:49;;;;;;;9.38;3.60;;;40.20;34.30;;;;;;6100217;23;82554;-75
2023/06/29 07:17:14;;;;;;;7.22;4.25;;;40.70;33.60;;;;;;6100467;23;83417;-74
2023/06/29 07:19:40;;;;;;;6.88;3.75;;;40.80;32.30;;;;;;6100660;23;82332;-73
2023/06/29 07:22:06;;;;;;;9.32;4.68;;;40.50;33.20;;;;;;6100731;23;82340;-73
2023/06/29 07:24:31;;;;;;;10.13;4.63;;;41.10;33.00;;;;;;6100257;23;83880;-73
2023/06/29 07:26:57;;;;;;;6.68;4.88;;;41.40;32.70;;;;;;6100493;23;83052;-74
2023/06/29 07:29:23;;;;;;;9.93;5.20;;;41.60;32.50;;;;;;6101602;23;82039;-73
2023/06/29 07:31:48;;;;;;;9.50;4.57;;;41.50;32.70;;;;;;6101538;23;82372;-74
2023/06/29 07:34:14;;;;;;;8.85;4.57;;;41.60;33.10;;;;;;6101042;23;82929;-74
2023/06/29 07:36:40;;;;;;;10.65;5.28;;;42.50;32.90;;;;;;6101557;23;83223;-74
2023/06/29 07:39:06;;;;;;;6.97;4.10;;;43.20;32.20;;;;;;6101652;23;82354;-74
2023/06/29 07:41:31;;;;;;;9.38;5.18;;;42.30;31.20;;;;;;6102225;23;81469;-73
2023/06/29 07:43:57;;;;;;;6.05;4.35;;;43.40;32.90;;;;;;6101238;23;82395;-73
2023/06/29 07:46:24;;;;;;;6.20;5.47;;;43.60;32.90;;;;;;6101355;23;82472;-74
2023/06/29 07:48:50;;;;;;;7.72;4.53;;;43.90;33.60;;;;;;6101350;23;83272;-74
2023/06/29 07:51:17;;;;;;;7.18;6.07;;;44.20;33.80;;;;;;6101538;23;82383;-73
2023/06/29 07:53:43;;;;;;;11.00;4.28;;;43.40;33.10;;;;;;6100752;23;83032;-73
2023/06/29 07:56:09;;;;;;;6.72;4.93;;;44.00;33.90;;;;;;6101500;23;83002;-74
2023/06/29 07:58:35;;;;;;;9.60;5.10;;;44.10;32.80;;;;;;6101422;23;82304;-73
2023/06/29 08:01:02;;;;;;;11.82;3.90;;;44.50;33.40;;;;;;6101975;23;82262;-74
2023/06/29 08:03:28;;;;;;;6.15;4.28;;;43.90;32.40;;;;;;6100492;23;83354;-74
2023/06/29 08:05:54;;;;;;;10.35;4.45;;;42.90;34.30;;;;;;6101611;23;82135;-73
2023/06/29 08:08:20;;;;;;;10.30;4.70;;;41.90;35.00;;;;;;6101744;23;82374;-73
2023/06/29 08:10:48;;;;;;;7.43;4.50;;;41.10;34.90;;;;;;6075268;23;82445;-74
2023/06/29 08:13:14;;;;;;;6.47;3.33;;;41.00;36.20;;;;;;6100757;23;83988;-74
2023/06/29 08:15:40;;;;;;;9.88;4.65;;;40.80;36.10;;;;;;6100896;23;83245;-74
2023/06/29 08:18:05;;;;;;;6.65;4.53;;;41.60;35.70;;;;;;6100333;23;82246;-74
2023/06/29 08:20:31;;;;;;;7.90;5.28;;;42.30;35.10;;;;;;6101570;23;82324;-73
2023/06/29 08:22:57;;;;;;;5.90;4.43;;;43.10;34.90;;;;;;6101537;23;82613;-74
2023/06/29 08:25:22;;;;;;;11.25;5.55;;;43.70;34.70;;;;;;6099853;23;82822;-74
2023/06/29 08:27:52;;;;;;;8.45;4.93;;;44.00;34.00;;;;;;6101627;23;82533;-73
2023/06/29 08:30:17;;;;;;;5.63;5.00;;;44.00;33.90;;;;;;6101659;23;81274;-74
2023/06/29 08:32:43;;;;;;;8.80;5.47;;;44.30;34.70;;;;;;6100985;23;83701;-74
2023/06/29 08:35:10;;;;;;;6.97;5.57;;;44.30;33.00;;;;;;6101322;23;83434;-73
2023/06/29 08:37:35;;;;;;;8.63;5.13;;;44.30;33.60;;;;;;6100310;23;83092;-74
2023/06/29 08:40:03;;;;;;;9.27;5.13;;;44.50;33.40;;;;;;6101616;23;82112;-73
2023/06/29 08:42:29;;;;;;;9.65;5.25;;;44.50;33.30;;;;;;6101605;23;82683;-73
2023/06/29 08:44:55;;;;;;;6.35;5.20;;;45.00;33.20;;;;;;6100765;23;82778;-72
2023/06/29 08:47:24;;;;;;;7.40;6.05;;;45.00;32.90;;;;;;6100785;23;82016;-73
2023/06/29 08:49:56;;;;;;;7.90;6.60;;;44.90;33.40;;;;;;6101439;23;81845;-72
2023/06/29 08:52:25;;;;;;;6.97;6.28;;;45.20;32.50;;;;;;6101059;23;82828;-73
2023/06/29 08:54:55;;;;;;;8.50;6.03;;;45.10;33.20;;;;;;6101463;23;81874;-73
2023/06/29 08:57:21;;;;;;;9.75;5.60;;;45.40;32.60;;;;;;6100860;23;82444;-73
2023/06/29 08:59:49;;;;;;;8.90;6.80;;;45.20;33.30;;;;;;6101139;23;81980;-73
2023/06/29 09:02:16;;;;;;;10.60;6.03;;;45.60;32.30;;;;;;6100385;23;84542;-73
2023/06/29 09:04:44;;;;;;;6.40;5.60;;;46.00;32.10;;;;;;6101119;23;82871;-73
2023/06/29 09:07:10;;;;;;;7.47;6.05;;;45.60;32.00;;;;;;6100683;23;81964;-72
2023/06/29 09:09:35;;;;;;;8.88;6.55;;;46.40;32.60;;;;;;6101144;23;82240;-73
2023/06/29 09:12:01;;;;;;;12.20;6.15;;;46.40;31.60;;;;;;6100739;23;82582;-73
2023/06/29 09:14:35;;;;;;;10.52;5.93;;;46.00;32.80;;;;;;6100438;23;82289;-73
2023/06/29 09:17:01;;;;;;;10.00;6.72;;;46.10;32.00;;;;;;6100115;23;82526;-73
2023/06/29 09:19:29;;;;;;;9.52;5.55;;;46.00;31.60;;;;;;6101223;23;82183;-73
2023/06/29 09:21:55;;;;;;;;;;;46.20;31.90;;;;;;6100822;23;83020;-73
2023/06/29 09:24:21;;;;;;;13.05;6.63;;;46.00;30.80;;;;;;6102953;23;81845;-73
2023/06/29 09:26:54;;;;;;;9.32;5.70;;;45.90;32.40;;;;;;6099677;23;83404;-73
2023/06/29 09:29:20;;;;;;;8.52;6.85;;;45.90;31.70;;;;;;6100292;23;82419;-73
2023/06/29 09:31:56;;;;;;;9.18;6.03;;;45.50;32.20;;;;;;6100272;23;82286;-72
2023/06/29 09:34:26;;;;;;;10.75;6.70;;;45.40;32.30;;;;;;6100678;23;83164;-73
2023/06/29 09:36:52;;;;;;;8.38;6.10;;;45.70;32.30;;;;;;6101181;23;82392;-73
2023/06/29 09:39:18;;;;;;;10.13;6.65;;;45.60;32.30;;;;;;6101066;23;82037;-73
2023/06/29 09:42:05;;;;;;;14.18;6.50;;;45.30;31.70;;;;;;6101442;23;82673;-74
2023/06/29 09:44:31;;;;;;;13.90;5.22;;;45.70;32.20;;;;;;6101922;23;83247;-73
2023/06/29 09:47:05;;;;;;;9.00;5.82;;;45.70;31.00;;;;;;6101611;23;81975;-73
2023/06/29 09:49:31;;;;;;;12.90;5.40;;;45.90;33.20;;;;;;6101078;23;82155;-73
2023/06/29 09:52:04;;;;;;;10.18;6.20;;;45.90;32.50;;;;;;6101243;23;83464;-73
2023/06/29 09:54:36;;;;;;;11.38;5.32;;;45.50;31.80;;;;;;6101439;23;83832;-72
2023/06/29 09:57:03;;;;;;;4.90;4.40;;;44.60;31.70;;;;;;6101515;23;82272;-72
2023/06/29 09:59:33;;;;;;;7.95;5.40;;;44.40;31.80;;;;;;6099345;23;82382;-72
2023/06/29 10:01:59;;;;;;;5.05;4.38;;;44.70;32.80;;;;;;6101307;23;82239;-72
2023/06/29 10:04:25;;;;;;;6.97;4.45;;;44.20;30.60;;;;;;6101936;23;82915;-73
2023/06/29 10:07:11;;;;;;;9.13;4.75;;;43.30;31.20;;;;;;6100061;23;82434;-73
2023/06/29 10:09:40;;;;;;;8.00;3.20;;;42.40;33.90;;;;;;6099991;23;81642;-72
2023/06/29 10:12:09;;;;;;;5.88;2.97;;;40.90;35.20;;;;;;6092006;23;82662;-72
2023/06/29 10:14:41;;;;;;;12.15;3.60;;;39.80;36.70;;;;;;6098793;23;82240;-72
2023/06/29 10:17:11;;;;;;;6.05;2.88;;;39.20;37.60;;;;;;6098319;23;83127;-73
2023/06/29 10:19:40;;;;;;;7.82;3.55;;;38.40;37.60;;;;;;6073255;23;82622;-72
2023/06/29 10:22:11;;;;;;;6.95;4.20;;;37.70;37.90;;;;;;6099416;23;83193;-71
2023/06/29 10:25:07;;;;;;;8.05;2.92;;;37.10;36.40;;;;;;6072813;23;86486;-73
2023/06/29 10:27:35;;;;;;;5.05;2.60;;;36.50;37.90;;;;;;6091445;23;82452;-74
2023/06/29 10:30:04;;;;;;;4.80;3.60;;;36.00;40.00;;;;;;6098529;23;82784;-71
2023/06/29 10:32:39;;;;;;;6.53;2.55;;;35.80;38.70;;;;;;6069817;23;84747;-71
2023/06/29 10:35:12;;;;;;;4.55;2.35;;;35.50;38.20;;;;;;6072345;23;86157;-72
2023/06/29 10:37:49;;;;;;;5.30;2.50;;;34.80;40.10;;;;;;6098808;23;81910;-73
2023/06/29 10:40:17;;;;;;;10.10;2.67;;;34.50;39.20;;;;;;6070591;23;82231;-73
2023/06/29 10:42:43;;;;;;;4.63;2.15;;;34.20;39.00;;;;;;6090668;23;83728;-72
2023/06/29 10:45:18;;;;;;;4.90;2.38;;;34.00;41.10;;;;;;6089590;23;82630;-73
2023/06/29 10:47:59;;;;;;;3.53;2.30;;;33.90;40.60;;;;;;6094461;23;82578;-74
2023/06/29 10:50:36;;;;;;;4.68;2.55;;;33.60;40.10;;;;;;6095697;23;82243;-72
2023/06/29 10:53:08;;;;;;;7.15;2.22;;;33.30;42.40;;;;;;6069283;23;86181;-73
2023/06/29 10:55:58;;;;;;;10.52;3.22;;;33.20;40.50;;;;;;6094684;23;82413;-72
2023/06/29 10:58:40;;;;;;;8.80;2.90;;;32.90;41.00;;;;;;6097152;23;82263;-72
2023/06/29 11:01:06;;;;;;;6.30;2.63;;;32.90;43.50;;;;;;6089734;23;81499;-72
2023/06/29 11:03:34;;;;;;;5.95;2.40;;;32.70;43.20;;;;;;6093857;23;83086;-73
2023/06/29 11:06:01;;;;;;;6.32;2.30;;;32.80;41.80;;;;;;6093098;23;82556;-71
2023/06/29 11:08:27;;;;;;;4.95;2.20;;;32.60;44.10;;;;;;6093696;23;84121;-71
2023/06/29 11:10:53;;;;;;;4.68;2.67;;;32.70;41.40;;;;;;6095405;23;82246;-72
2023/06/29 11:13:20;;;;;;;10.48;3.03;;;32.60;41.00;;;;;;6095947;23;84098;-73
2023/06/29 11:15:56;;;;;;;4.22;2.50;;;32.70;40.50;;;;;;6095042;23;82382;-74
2023/06/29 11:18:22;;;;;;;7.15;2.58;;;32.60;42.50;;;;;;6067873;23;82648;-72
2023/06/29 11:20:48;;;;;;;6.35;2.67;;;32.50;42.80;;;;;;6093578;23;81906;-72
2023/06/29 11:23:16;;;;;;;4.75;2.95;;;32.50;42.50;;;;;;6093958;23;83765;-73
2023/06/29 11:25:43;;;;;;;5.70;3.00;;;32.80;41.50;;;;;;6070885;23;85186;-73
2023/06/29 11:28:09;;;;;;;4.72;2.67;;;32.80;41.10;;;;;;6095824;23;82382;-73
2023/06/29 11:30:39;;;;;;;8.40;3.88;;;32.60;40.70;;;;;;6095813;23;82685;-71
2023/06/29 11:33:06;;;;;;;7.40;3.47;;;32.50;41.70;;;;;;6095062;23;84117;-72
2023/06/29 11:35:32;;;;;;;6.22;3.47;;;32.40;40.60;;;;;;6097949;23;83194;-72
2023/06/29 11:38:01;;;;;;;8.18;3.30;;;32.40;41.80;;;;;;6096449;23;82405;-72
2023/06/29 11:40:28;;;;;;;7.60;3.20;;;32.50;42.70;;;;;;6097822;23;82504;-72
2023/06/29 11:42:54;;;;;;;7.45;3.05;;;32.50;43.20;;;;;;6095366;23;83260;-72
2023/06/29 11:45:23;;;;;;;6.80;3.40;;;32.50;42.80;;;;;;6098203;23;82323;-74
2023/06/29 11:47:55;;;;;;;9.25;3.33;;;32.80;41.10;;;;;;6099712;23;82186;-72
2023/06/29 11:50:30;;;;;;;6.57;3.38;;;32.70;40.20;;;;;;6099474;23;81552;-73
2023/06/29 11:53:06;;;;;;;6.35;3.92;;;32.80;40.50;;;;;;6099840;23;82264;-72
2023/06/29 11:55:32;;;;;;;9.27;3.90;;;32.70;40.70;;;;;;6096372;23;82700;-72
2023/06/29 11:57:59;;;;;;;13.45;7.72;;;32.70;40.10;;;;;;6097730;23;83211;-74
2023/06/29 12:00:30;;;;;;;6.82;3.60;;;32.50;42.20;;;;;;6096148;23;82540;-73
2023/06/29 12:02:56;;;;;;;11.85;5.97;;;32.80;43.20;;;;;;6098533;23;83053;-72
2023/06/29 12:05:29;;;;;;;7.10;4.18;;;32.90;40.00;;;;;;6099616;23;82446;-74
2023/06/29 12:08:03;;;;;;;9.73;4.57;;;32.80;40.80;;;;;;6096126;23;82679;-73
2023/06/29 12:10:28;;;;;;;7.70;3.75;;;32.70;40.30;;;;;;6095919;23;82383;-73
2023/06/29 12:12:58;;;;;;;5.20;3.15;;;32.70;41.70;;;;;;6099312;23;82346;-72
2023/06/29 12:15:26;;;;;;;5.00;2.70;;;32.80;40.00;;;;;;6098105;23;82661;-72
2023/06/29 12:17:58;;;;;;;7.22;2.75;;;32.60;39.50;;;;;;6097068;23;84039;-72
2023/06/29 12:20:24;;;;;;;6.53;2.80;;;32.50;40.50;;;;;;6098099;23;82375;-73
2023/06/29 12:22:54;;;;;;;8.93;3.08;;;32.70;40.60;;;;;;6097418;23;84273;-72
2023/06/29 12:25:21;;;;;;;5.85;3.30;;;32.70;41.40;;;;;;6098888;23;82496;-72
2023/06/29 12:27:48;;;;;;;10.02;3.15;;;32.60;41.70;;;;;;6100140;23;82055;-72
2023/06/29 12:30:18;;;;;;;6.38;2.97;;;32.60;39.30;;;;;;6099124;23;82259;-72
2023/06/29 12:32:48;;;;;;;5.57;2.90;;;32.20;40.10;;;;;;6097999;23;82922;-73
2023/06/29 12:35:14;;;;;;;6.85;2.65;;;31.80;40.70;;;;;;6096136;23;82738;-72
2023/06/29 12:37:40;;;;;;;4.78;2.70;;;31.70;41.10;;;;;;6098283;23;82394;-73
2023/06/29 12:40:07;;;;;;;4.93;3.30;;;31.60;40.40;;;;;;6098813;23;81605;-72
2023/06/29 12:42:33;;;;;;;9.02;2.58;;;31.40;41.90;;;;;;6096991;23;82992;-73
2023/06/29 12:45:00;;;;;;;8.20;3.47;;;31.10;41.10;;;;;;6093245;23;82809;-72
2023/06/29 12:47:28;;;;;;;5.78;2.67;;;31.00;42.80;;;;;;6097763;23;82941;-72
2023/06/29 12:49:53;;;;;;;5.05;2.55;;;30.90;42.60;;;;;;6098146;23;82405;-72
2023/06/29 12:52:19;;;;;;;5.50;2.83;;;30.90;43.50;;;;;;6100350;23;82969;-74
2023/06/29 12:54:45;;;;;;;5.07;2.55;;;30.90;41.60;;;;;;6097884;23;82566;-71
2023/06/29 12:57:12;;;;;;;5.80;2.95;;;30.90;41.50;;;;;;6100273;23;82173;-73
2023/06/29 12:59:39;;;;;;;5.50;2.53;;;30.90;40.90;;;;;;6099339;23;82064;-72
2023/06/29 13:02:05;;;;;;;7.38;2.67;;;30.90;40.50;;;;;;6097632;23;82478;-72
2023/06/29 13:04:34;;;;;;;7.40;2.70;;;31.00;41.60;;;;;;6100501;23;83316;-72
2023/06/29 13:07:00;;;;;;;7.22;3.78;;;31.00;40.50;;;;;;6100260;23;82505;-72
2023/06/29 13:09:25;;;;;;;4.63;2.55;;;31.00;42.30;;;;;;6100478;23;81962;-73
2023/06/29 13:11:51;;;;;;;5.50;2.60;;;30.90;41.30;;;;;;6099145;23;83327;-72
2023/06/29 13:14:17;;;;;;;6.20;3.38;;;30.80;40.50;;;;;;6099809;23;83168;-71
2023/06/29 13:16:42;;;;;;;7.18;4.30;;;30.80;41.80;;;;;;6100285;23;82350;-72
2023/06/29 13:19:08;;;;;;;7.63;3.83;;;31.00;42.60;;;;;;6100493;23;82405;-72
2023/06/29 13:21:35;;;;;;;9.88;3.78;;;31.10;39.10;;;;;;6099876;23;82473;-71
2023/06/29 13:24:01;;;;;;;8.02;4.97;;;31.10;41.70;;;;;;6100186;23;82769;-71
2023/06/29 13:26:27;;;;;;;8.25;4.57;;;31.10;38.00;;;;;;6100167;23;82156;-71
2023/06/29 13:28:53;;;;;;;8.35;4.40;;;30.90;38.10;;;;;;6100632;23;81289;-71
2023/06/29 13:31:19;;;;;;;8.85;5.50;;;31.00;38.90;;;;;;6099976;23;82198;-72
2023/06/29 13:33:45;;;;;;;9.98;5.45;;;31.30;40.20;;;;;;6100590;23;82770;-71
2023/06/29 13:36:11;;;;;;;9.32;5.22;;;31.50;39.50;;;;;;6099566;23;83283;-73
2023/06/29 13:38:36;;;;;;;6.97;4.35;;;31.50;40.70;;;;;;6099938;23;82369;-71
2023/06/29 13:41:04;;;;;;;8.63;5.22;;;31.60;39.00;;;;;;6100043;23;82429;-70
2023/06/29 13:43:30;;;;;;;8.80;4.85;;;31.50;39.10;;;;;;6100259;23;82206;-72
2023/06/29 13:45:55;;;;;;;8.60;4.70;;;31.50;38.50;;;;;;6099549;23;82164;-71
2023/06/29 13:48:21;;;;;;;7.38;4.13;;;31.60;39.40;;;;;;6100011;23;82186;-71
2023/06/29 13:50:47;;;;;;;11.85;4.90;;;31.60;40.40;;;;;;6100162;23;83333;-73
2023/06/29 13:53:14;;;;;;;9.10;5.75;;;31.60;42.80;;;;;;6100381;23;83138;-72
2023/06/29 13:55:42;;;;;;;7.13;3.65;;;31.50;41.50;;;;;;6100386;23;81915;-71
2023/06/29 13:58:09;;;;;;;8.18;4.32;;;31.60;41.10;;;;;;6100598;23;82262;-72
2023/06/29 14:00:35;;;;;;;12.93;6.63;;;31.80;41.50;;;;;;6073459;23;84279;-71
2023/06/29 14:03:02;;;;;;;15.15;8.30;;;31.80;40.00;;;;;;6100580;23;83611;-71
2023/06/29 14:05:31;;;;;;;15.50;8.98;;;31.70;39.30;;;;;;6099986;23;82099;-71
2023/06/29 14:07:57;;;;;;;17.40;10.63;;;31.60;37.70;;;;;;6101009;23;82629;-72
2023/06/29 14:10:27;;;;;;;15.68;9.50;;;31.60;39.30;;;;;;6099441;23;83049;-71
2023/06/29 14:12:52;;;;;;;18.60;10.43;;;31.70;40.00;;;;;;6100660;23;82184;-72
2023/06/29 14:15:18;;;;;;;17.92;10.88;;;31.60;39.80;;;;;;6098982;23;83228;-72
2023/06/29 14:17:44;;;;;;;18.85;10.30;;;31.50;40.70;;;;;;6099103;23;83008;-70
2023/06/29 14:20:10;;;;;;;17.50;10.95;;;31.60;39.00;;;;;;6072970;23;83119;-71
2023/06/29 14:22:35;;;;;;;19.23;11.38;;;31.50;39.50;;;;;;6099403;23;84287;-71
2023/06/29 14:25:03;;;;;;;17.25;10.85;;;31.40;38.30;;;;;;6100580;23;83720;-71
2023/06/29 14:27:29;;;;;;;18.55;10.35;;;31.40;38.30;;;;;;6100825;23;83134;-73
2023/06/29 14:29:54;;;;;;;15.23;8.93;;;31.30;39.50;;;;;;6100575;23;83068;-73
2023/06/29 14:32:20;;;;;;;19.00;10.27;;;31.40;40.40;;;;;;6101958;23;82889;-72
2023/06/29 14:34:48;;;;;;;16.65;8.50;;;31.40;41.10;;;;;;6100857;23;82975;-74
2023/06/29 14:37:14;;;;;;;19.98;7.95;;;31.40;39.80;;;;;;6101611;23;82355;-71
2023/06/29 14:39:40;;;;;;;15.48;8.60;;;31.40;42.00;;;;;;6101746;23;83404;-72
2023/06/29 14:42:06;;;;;;;16.27;9.23;;;31.40;40.90;;;;;;6102358;23;83342;-72
2023/06/29 14:44:32;;;;;;;18.50;8.65;;;31.50;41.50;;;;;;6101518;23;82740;-71
2023/06/29 14:46:57;;;;;;;14.05;7.30;;;31.50;41.90;;;;;;6101588;23;82481;-72
2023/06/29 14:49:23;;;;;;;12.45;6.57;;;31.40;40.90;;;;;;6101249;23;83447;-71
2023/06/29 14:51:49;;;;;;;12.30;6.75;;;31.40;41.90;;;;;;6101392;23;83685;-71
2023/06/29 14:54:18;;;;;;;15.65;6.55;;;31.30;40.80;;;;;;6101654;23;82674;-71
2023/06/29 14:56:43;;;;;;;9.73;5.25;;;31.30;41.80;;;;;;6101977;23;82416;-72
2023/06/29 14:59:10;;;;;;;12.13;5.93;;;31.20;41.40;;;;;;6101821;23;82559;-72
2023/06/29 15:01:35;;;;;;;11.95;6.07;;;31.10;42.70;;;;;;6101345;23;82707;-71
2023/06/29 15:04:01;;;;;;;12.80;5.43;;;31.00;42.60;;;;;;6101721;23;82673;-73
2023/06/29 15:06:27;;;;;;;13.18;5.93;;;30.90;43.50;;;;;;6102077;23;81265;-71
2023/06/29 15:08:52;;;;;;;12.77;6.65;;;31.10;43.90;;;;;;6101848;23;82397;-72
2023/06/29 15:11:18;;;;;;;10.25;5.93;;;31.10;42.90;;;;;;6101683;23;82840;-70
2023/06/29 15:13:43;;;;;;;11.35;5.95;;;31.00;43.50;;;;;;6100497;23;84227;-72
2023/06/29 15:16:09;;;;;;;10.45;5.38;;;31.00;43.60;;;;;;6101260;23;82423;-72
2023/06/29 15:18:35;;;;;;;11.48;6.72;;;30.90;43.10;;;;;;6101756;23;83363;-73
2023/06/29 15:21:00;;;;;;;18.27;7.65;;;30.70;42.40;;;;;;6101688;23;82832;-72
2023/06/29 15:23:26;;;;;;;10.30;7.18;;;30.60;42.50;;;;;;6101465;23;82287;-72
2023/06/29 15:25:52;;;;;;;17.42;7.55;;;30.50;43.00;;;;;;6101395;23;81989;-72
2023/06/29 15:28:18;;;;;;;12.75;7.47;;;30.40;43.40;;;;;;6101716;23;82274;-71
2023/06/29 15:30:43;;;;;;;14.50;8.18;;;30.20;42.30;;;;;;6101673;23;83114;-71
2023/06/29 15:33:09;;;;;;;22.85;7.95;;;30.10;43.40;;;;;;6102003;23;81865;-73
2023/06/29 15:35:35;;;;;;;13.85;7.22;;;30.00;43.20;;;;;;6101046;23;82070;-72
2023/06/29 15:38:00;;;;;;;11.07;5.82;;;29.90;44.00;;;;;;6100331;23;83279;-74
2023/06/29 15:40:26;;;;;;;12.70;6.30;;;29.70;43.30;;;;;;6099336;23;83643;-70
2023/06/29 15:42:52;;;;;;;11.95;6.45;;;29.70;43.80;;;;;;6098708;23;81977;-73
2023/06/29 15:45:17;;;;;;;14.35;6.60;;;29.70;44.50;;;;;;6098195;23;82504;-73
2023/06/29 15:47:43;;;;;;;11.77;5.93;;;29.60;44.10;;;;;;6101135;23;82892;-71
2023/06/29 15:50:09;;;;;;;16.50;6.07;;;29.50;44.50;;;;;;6101483;23;82850;-72
2023/06/29 15:52:35;;;;;;;12.75;6.10;;;29.40;45.00;;;;;;6101290;23;82328;-72
2023/06/29 15:55:01;;;;;;;12.27;6.70;;;29.50;44.80;;;;;;6102201;23;81554;-72
2023/06/29 15:57:26;;;;;;;16.58;6.45;;;29.40;45.20;;;;;;6101049;23;82474;-72
2023/06/29 15:59:52;;;;;;;17.30;6.07;;;29.40;45.50;;;;;;6101158;23;83253;-72